Nearby METAR Reports

 

NZAA - Auckland Intl Ar, New Zealand
Distance from station: SW 18km
Updated: 21/10/2019 10:30
Partly cloudy
Partly cloudy
 Wind from W
Wind: W 31 km/h
Temperature: 18°C
Dew Point: 11°C
Humidity: 64%
Barometer: 1013 hPa
Clouds: Partly cloudy
Visibility: 10 km
Cloud details: Few Clouds 914 m
Partly cloudy 1981 m
2019/10/20 21:30 NZAA 202130Z AUTO 28017KT 9999 FEW030/// SCT065/// 18/11 Q1013 TEMPO 7000 SHRA
NZWN - Wellington Intl, New Zealand
Distance from station: S 493km
Updated: 21/10/2019 10:30
Mostly cloudy
Mostly cloudy
 Wind from NNW
Wind: NNW 30 km/h
Temperature: 15°C
Dew Point: 10°C
Humidity: 72%
Barometer: 1005 hPa
Clouds: Mostly cloudy
Visibility: 10 km
Cloud details: Mostly cloudy 671 m
Mostly cloudy 1676 m
2019/10/20 21:30 NZWN 202130Z AUTO 34016KT 300V010 9999 BKN022/// BKN055/// 15/10 Q1005 NOSIG
 
NZCH - Christchurch Int, New Zealand
Distance from station: SSW 759km
Updated: 21/10/2019 10:30
Clear
Clear
 Wind from NW
Wind: NW 13 km/h
Temperature: 15°C
Dew Point: 1°C
Humidity: 39%
Barometer: 999 hPa
Clouds: Clear
Visibility: 10 km
2019/10/20 21:30 NZCH 202130Z AUTO 32007KT 270V020 9999 NCD 15/01 Q0999 NOSIG
YSNF - Norfolk Island A, Australia
Distance from station: NW 1091km
Updated: 21/10/2019 10:30
Mostly cloudy
Mostly cloudy
 Wind from ESE
Wind: ESE 7 km/h
Temperature: 18°C
Dew Point: 16°C
Humidity: 88%
Barometer: 1019 hPa
Clouds: Mostly cloudy
Visibility: 10 km
Cloud details: Few Clouds 183 m
Mostly cloudy 2926 m
2019/10/20 21:30 YSNF 202130Z 11004KT 9999 FEW006 BKN096 18/16 Q1019 RF00.0/000.0